Time;durP1;ratioP1;P1;durP2;ratioP2;P2;SDS_P1;SDS_P2;PMS_P1;PMS_P2;Temp;Humidity;BMP_temperature;BMP_pressure;BME280_temperature;BME280_humidity;BME280_pressure;Samples;Min_cycle;Max_cycle;Signal;HPM_P1;HPM_P2
2024/01/01 00:00:11;;;;;;;32.30;14.95;;;;;;;;;;4907905;29;20059;-70
2024/01/01 00:02:37;;;;;;;35.58;15.20;;;;;;;;;;4910316;29;20055;-70
2024/01/01 00:05:03;;;;;;;29.58;14.48;;;;;;;;;;4910235;29;20079;-70
2024/01/01 00:07:29;;;;;;;32.10;16.27;;;;;;;;;;4909301;29;20708;-70
2024/01/01 00:09:55;;;;;;;33.47;17.75;;;;;;;;;;4924745;29;20075;-71
2024/01/01 00:12:21;;;;;;;37.97;19.30;;;;;;;;;;4911273;29;20102;-69
2024/01/01 00:14:47;;;;;;;36.70;19.35;;;;;;;;;;4906905;29;20056;-69
2024/01/01 00:17:13;;;;;;;32.05;18.38;;;;;;;;;;4909836;29;20047;-69
2024/01/01 00:19:40;;;;;;;40.03;18.90;;;;;;;;;;4901555;29;20147;-70
2024/01/01 00:22:06;;;;;;;37.67;18.38;;;;;;;;;;4928504;29;20048;-70
2024/01/01 00:24:32;;;;;;;35.47;20.38;;;;;;;;;;4911805;29;20047;-70
2024/01/01 00:26:59;;;;;;;36.88;18.05;;;;;;;;;;4928327;29;20762;-69
2024/01/01 00:29:25;;;;;;;39.78;21.88;;;;;;;;;;4924995;29;20241;-70
2024/01/01 00:31:52;;;;;;;35.83;19.38;;;;;;;;;;4922083;29;20083;-70
2024/01/01 00:34:18;;;;;;;31.17;19.73;;;;;;;;;;4945452;29;20052;-69
2024/01/01 00:36:44;;;;;;;33.95;18.65;;;;;;;;;;4915427;29;20043;-70
2024/01/01 00:39:10;;;;;;;35.92;18.15;;;;;;;;;;4931291;29;20106;-70
2024/01/01 00:41:38;;;;;;;33.72;20.00;;;;;;;;;;4931331;29;20125;-70
2024/01/01 00:44:05;;;;;;;39.42;20.00;;;;;;;;;;4933106;29;20074;-69
2024/01/01 00:46:31;;;;;;;32.30;16.80;;;;;;;;;;4927712;29;20054;-70
2024/01/01 00:48:57;;;;;;;36.22;17.98;;;;;;;;;;4931043;29;20051;-70
2024/01/01 00:51:23;;;;;;;28.33;16.77;;;;;;;;;;4929959;29;20098;-70
2024/01/01 00:53:49;;;;;;;28.67;16.25;;;;;;;;;;4934581;29;20043;-69
2024/01/01 00:56:15;;;;;;;30.55;17.15;;;;;;;;;;4929918;29;20091;-70
2024/01/01 00:58:41;;;;;;;33.03;19.25;;;;;;;;;;4925914;29;20126;-70
2024/01/01 01:01:07;;;;;;;36.83;19.40;;;;;;;;;;4931225;29;20062;-69
2024/01/01 01:03:35;;;;;;;33.80;18.55;;;;;;;;;;4930758;28;20047;-70
2024/01/01 01:06:01;;;;;;;40.83;21.65;;;;;;;;;;4954622;28;20062;-70
2024/01/01 01:08:27;;;;;;;37.42;21.98;;;;;;;;;;4949825;28;20047;-70
2024/01/01 01:10:53;;;;;;;39.28;22.02;;;;;;;;;;4946224;28;20051;-70
2024/01/01 01:13:19;;;;;;;37.08;21.67;;;;;;;;;;4945197;29;20047;-70
2024/01/01 01:15:45;;;;;;;38.72;23.42;;;;;;;;;;4953963;28;20058;-70
2024/01/01 01:18:11;;;;;;;46.13;22.95;;;;;;;;;;4942985;29;20733;-70
2024/01/01 01:20:37;;;;;;;36.00;21.85;;;;;;;;;;4945791;29;20051;-70
2024/01/01 01:23:03;;;;;;;41.38;21.63;;;;;;;;;;4944942;29;20051;-71
2024/01/01 01:25:31;;;;;;;44.97;24.10;;;;;;;;;;4947116;28;20047;-70
2024/01/01 01:27:57;;;;;;;31.20;19.88;;;;;;;;;;4944733;29;20062;-71
2024/01/01 01:30:23;;;;;;;34.00;21.30;;;;;;;;;;4939449;29;20046;-70
2024/01/01 01:32:49;;;;;;;30.92;18.13;;;;;;;;;;4942771;29;20059;-70
2024/01/01 01:35:15;;;;;;;31.92;17.08;;;;;;;;;;4938216;29;20172;-70
2024/01/01 01:37:41;;;;;;;32.05;17.58;;;;;;;;;;4939926;29;20071;-71
2024/01/01 01:40:07;;;;;;;32.35;18.42;;;;;;;;;;4939608;29;20474;-70
2024/01/01 01:42:33;;;;;;;32.45;17.02;;;;;;;;;;4943192;29;20384;-69
2024/01/01 01:44:59;;;;;;;39.40;18.33;;;;;;;;;;4942457;29;20055;-70
2024/01/01 01:47:27;;;;;;;32.83;18.02;;;;;;;;;;4945532;29;20050;-70
2024/01/01 01:49:53;;;;;;;28.10;18.08;;;;;;;;;;4943792;29;20102;-70
2024/01/01 01:52:19;;;;;;;33.40;18.98;;;;;;;;;;4945870;29;20054;-70
2024/01/01 01:54:47;;;;;;;32.20;20.50;;;;;;;;;;4942664;29;20047;-69
2024/01/01 01:57:14;;;;;;;32.42;17.95;;;;;;;;;;4930391;29;20054;-70
2024/01/01 01:59:42;;;;;;;40.40;19.63;;;;;;;;;;4933793;29;20051;-70
2024/01/01 02:02:08;;;;;;;31.42;18.52;;;;;;;;;;4942945;29;20078;-70
2024/01/01 02:04:34;;;;;;;31.90;19.42;;;;;;;;;;4938809;29;20054;-70
2024/01/01 02:07:00;;;;;;;32.40;18.90;;;;;;;;;;4938232;29;20047;-70
2024/01/01 02:09:27;;;;;;;36.38;19.50;;;;;;;;;;4939770;29;20045;-70
2024/01/01 02:11:53;;;;;;;31.48;20.42;;;;;;;;;;4941246;28;20047;-70
2024/01/01 02:14:19;;;;;;;36.08;20.13;;;;;;;;;;4944335;29;20106;-70
2024/01/01 02:16:45;;;;;;;30.17;20.02;;;;;;;;;;4944099;29;20055;-69
2024/01/01 02:19:19;;;;;;;33.50;19.10;;;;;;;;;;4942019;29;20053;-70
2024/01/01 02:21:45;;;;;;;34.05;17.50;;;;;;;;;;4939991;29;20802;-70
2024/01/01 02:24:11;;;;;;;31.65;17.65;;;;;;;;;;4929856;29;20077;-69
2024/01/01 02:26:37;;;;;;;29.17;16.15;;;;;;;;;;4940702;29;20047;-70
2024/01/01 02:29:03;;;;;;;31.35;15.82;;;;;;;;;;4928474;29;20051;-69
2024/01/01 02:31:29;;;;;;;29.23;16.55;;;;;;;;;;4937671;29;20058;-70
2024/01/01 02:33:55;;;;;;;22.25;13.15;;;;;;;;;;4941210;29;20055;-70
2024/01/01 02:36:22;;;;;;;24.38;13.73;;;;;;;;;;4942052;29;20422;-70
2024/01/01 02:38:48;;;;;;;22.02;11.93;;;;;;;;;;4939886;29;20050;-70
2024/01/01 02:41:14;;;;;;;21.75;12.63;;;;;;;;;;4941053;29;20043;-70
2024/01/01 02:43:40;;;;;;;27.08;14.00;;;;;;;;;;4943947;28;20046;-70
2024/01/01 02:46:06;;;;;;;23.08;12.82;;;;;;;;;;4942808;29;20054;-70
2024/01/01 02:48:32;;;;;;;25.38;12.20;;;;;;;;;;4941645;29;20562;-70
2024/01/01 02:50:58;;;;;;;24.08;13.25;;;;;;;;;;4942544;29;20138;-70
2024/01/01 02:53:24;;;;;;;20.75;10.65;;;;;;;;;;4942142;28;20050;-70
2024/01/01 02:55:50;;;;;;;17.95;10.85;;;;;;;;;;4923746;29;20054;-70
2024/01/01 02:58:16;;;;;;;21.08;11.52;;;;;;;;;;4943547;29;20047;-70
2024/01/01 03:00:46;;;;;;;25.60;10.30;;;;;;;;;;4939899;29;20047;-70
2024/01/01 03:03:12;;;;;;;21.15;9.48;;;;;;;;;;4944490;28;20039;-71
2024/01/01 03:05:38;;;;;;;19.30;8.80;;;;;;;;;;4944026;28;20051;-70
2024/01/01 03:08:05;;;;;;;19.13;8.15;;;;;;;;;;4941261;29;20059;-70
2024/01/01 03:10:31;;;;;;;16.92;8.02;;;;;;;;;;4937682;28;20052;-70
2024/01/01 03:12:57;;;;;;;14.57;6.95;;;;;;;;;;4937221;29;20463;-70
2024/01/01 03:15:23;;;;;;;18.85;8.25;;;;;;;;;;4944178;29;20759;-70
2024/01/01 03:17:49;;;;;;;19.88;8.40;;;;;;;;;;4943155;28;20053;-70
2024/01/01 03:20:15;;;;;;;16.15;7.55;;;;;;;;;;4944258;29;20070;-70
2024/01/01 03:22:42;;;;;;;18.92;7.65;;;;;;;;;;4947199;28;20046;-70
2024/01/01 03:25:09;;;;;;;13.85;7.57;;;;;;;;;;4948082;29;20142;-70
2024/01/01 03:27:36;;;;;;;14.98;5.97;;;;;;;;;;4946435;29;20054;-70
2024/01/01 03:30:06;;;;;;;14.77;6.63;;;;;;;;;;4946716;29;20047;-70
2024/01/01 03:32:33;;;;;;;16.77;8.40;;;;;;;;;;4946188;29;20055;-70
2024/01/01 03:34:59;;;;;;;13.10;6.15;;;;;;;;;;4948540;29;20099;-70
2024/01/01 03:37:25;;;;;;;15.20;5.85;;;;;;;;;;4942335;29;20575;-70
2024/01/01 03:39:51;;;;;;;11.85;5.95;;;;;;;;;;4944618;29;20138;-70
2024/01/01 03:42:17;;;;;;;17.65;5.72;;;;;;;;;;4944417;29;20047;-70
2024/01/01 03:44:43;;;;;;;13.00;5.47;;;;;;;;;;4946358;29;20510;-70
2024/01/01 03:47:09;;;;;;;13.73;5.70;;;;;;;;;;4945287;29;20051;-70
2024/01/01 03:49:35;;;;;;;12.73;4.35;;;;;;;;;;4934922;29;20086;-70
2024/01/01 03:52:01;;;;;;;15.90;6.55;;;;;;;;;;4932178;29;20088;-70
2024/01/01 03:54:27;;;;;;;12.93;4.45;;;;;;;;;;4947294;29;20047;-70
2024/01/01 03:56:55;;;;;;;10.95;4.32;;;;;;;;;;4941534;29;20054;-70
2024/01/01 03:59:21;;;;;;;7.72;3.97;;;;;;;;;;4944213;29;20047;-70
2024/01/01 04:01:49;;;;;;;11.60;3.80;;;;;;;;;;4946974;29;20078;-70
2024/01/01 04:04:15;;;;;;;13.32;3.50;;;;;;;;;;4943066;29;20131;-70
2024/01/01 04:06:41;;;;;;;10.73;3.92;;;;;;;;;;4946802;29;20051;-70
2024/01/01 04:09:07;;;;;;;10.70;3.97;;;;;;;;;;4940957;29;20059;-70
2024/01/01 04:11:33;;;;;;;7.65;3.67;;;;;;;;;;4945958;29;20047;-70
2024/01/01 04:14:00;;;;;;;7.97;3.70;;;;;;;;;;4930320;29;20062;-70
2024/01/01 04:16:26;;;;;;;10.40;3.78;;;;;;;;;;4941272;29;20051;-70
2024/01/01 04:18:52;;;;;;;10.00;3.00;;;;;;;;;;4946170;29;20125;-70
2024/01/01 04:21:18;;;;;;;8.18;2.78;;;;;;;;;;4942043;29;20085;-70
2024/01/01 04:23:44;;;;;;;9.65;3.22;;;;;;;;;;4942525;29;20058;-69
2024/01/01 04:26:10;;;;;;;8.25;2.90;;;;;;;;;;4930866;29;20690;-70
2024/01/01 04:28:36;;;;;;;12.43;3.50;;;;;;;;;;4942007;29;20047;-70
2024/01/01 04:31:02;;;;;;;12.95;4.07;;;;;;;;;;4929214;29;20074;-71
2024/01/01 04:33:28;;;;;;;7.88;3.53;;;;;;;;;;4945837;28;20570;-71
2024/01/01 04:35:54;;;;;;;9.43;3.33;;;;;;;;;;4941907;29;20130;-70
2024/01/01 04:38:20;;;;;;;8.07;3.35;;;;;;;;;;4944738;29;20057;-70
2024/01/01 04:40:47;;;;;;;13.32;4.05;;;;;;;;;;4946490;29;20049;-70
2024/01/01 04:43:13;;;;;;;17.00;4.40;;;;;;;;;;4933692;29;20508;-70
2024/01/01 04:45:39;;;;;;;13.68;4.05;;;;;;;;;;4929992;29;20086;-70
2024/01/01 04:48:06;;;;;;;9.98;3.80;;;;;;;;;;4933871;29;20143;-70
2024/01/01 04:50:32;;;;;;;12.80;3.60;;;;;;;;;;4939569;29;20043;-70
2024/01/01 04:52:58;;;;;;;15.57;4.10;;;;;;;;;;4938264;29;20132;-70
2024/01/01 04:55:24;;;;;;;10.70;4.95;;;;;;;;;;4940937;29;20127;-70
2024/01/01 04:57:50;;;;;;;11.68;3.38;;;;;;;;;;4942017;29;20125;-70
2024/01/01 05:00:16;;;;;;;13.95;4.70;;;;;;;;;;4943158;29;20574;-71
2024/01/01 05:02:42;;;;;;;18.52;4.38;;;;;;;;;;4939898;29;20035;-70
2024/01/01 05:05:08;;;;;;;11.65;3.38;;;;;;;;;;4943221;29;20039;-70
2024/01/01 05:07:37;;;;;;;14.02;5.00;;;;;;;;;;4945833;29;20043;-70
2024/01/01 05:10:04;;;;;;;9.57;3.55;;;;;;;;;;4929839;29;20151;-70
2024/01/01 05:12:30;;;;;;;12.63;3.78;;;;;;;;;;4946761;29;20051;-70
2024/01/01 05:14:56;;;;;;;11.27;4.07;;;;;;;;;;4946345;28;20047;-70
2024/01/01 05:17:23;;;;;;;8.98;4.03;;;;;;;;;;4930417;29;20054;-70
2024/01/01 05:19:50;;;;;;;12.20;3.97;;;;;;;;;;4946009;28;20204;-70
2024/01/01 05:22:16;;;;;;;13.32;4.00;;;;;;;;;;4943898;29;20585;-70
2024/01/01 05:24:42;;;;;;;16.30;5.10;;;;;;;;;;4940022;28;20043;-70
2024/01/01 05:27:09;;;;;;;14.93;4.43;;;;;;;;;;4945476;29;20422;-70
2024/01/01 05:29:35;;;;;;;15.10;3.95;;;;;;;;;;4942666;29;20093;-70
2024/01/01 05:32:01;;;;;;;10.85;4.00;;;;;;;;;;4937418;29;20063;-70
2024/01/01 05:34:27;;;;;;;7.88;3.70;;;;;;;;;;4945231;29;20498;-70
2024/01/01 05:36:53;;;;;;;11.68;3.92;;;;;;;;;;4938861;29;20058;-69
2024/01/01 05:39:19;;;;;;;12.35;3.88;;;;;;;;;;4944749;29;20126;-70
2024/01/01 05:41:45;;;;;;;21.88;4.70;;;;;;;;;;4933012;29;20051;-70
2024/01/01 05:44:11;;;;;;;16.80;3.88;;;;;;;;;;4944110;29;20051;-70
2024/01/01 05:46:37;;;;;;;10.77;3.60;;;;;;;;;;4935518;28;20917;-72
2024/01/01 05:49:03;;;;;;;14.40;4.15;;;;;;;;;;4938458;29;20107;-70
2024/01/01 05:51:29;;;;;;;13.18;3.72;;;;;;;;;;4941318;29;20130;-70
2024/01/01 05:53:57;;;;;;;15.23;4.00;;;;;;;;;;4943084;29;20485;-70
2024/01/01 05:56:24;;;;;;;9.40;3.72;;;;;;;;;;4944515;29;20082;-70
2024/01/01 05:58:50;;;;;;;13.65;3.90;;;;;;;;;;4938541;29;20055;-70
2024/01/01 06:01:16;;;;;;;13.63;4.32;;;;;;;;;;4938040;29;20444;-70
2024/01/01 06:03:44;;;;;;;15.77;4.53;;;;;;;;;;4914989;29;20071;-70
2024/01/01 06:06:10;;;;;;;15.40;4.32;;;;;;;;;;4933811;29;20055;-70
2024/01/01 06:08:36;;;;;;;16.58;4.32;;;;;;;;;;4918737;29;20078;-70
2024/01/01 06:11:02;;;;;;;10.07;3.50;;;;;;;;;;4906010;29;20066;-70
2024/01/01 06:13:28;;;;;;;11.88;3.90;;;;;;;;;;4922119;29;20066;-70
2024/01/01 06:15:54;;;;;;;12.15;3.33;;;;;;;;;;4925097;29;20047;-70
2024/01/01 06:18:21;;;;;;;8.80;4.15;;;;;;;;;;4926613;29;20440;-70
2024/01/01 06:20:47;;;;;;;14.00;4.28;;;;;;;;;;4912377;29;20059;-70
2024/01/01 06:23:13;;;;;;;12.38;4.68;;;;;;;;;;4928679;29;20050;-70
2024/01/01 06:25:39;;;;;;;14.15;4.65;;;;;;;;;;4925013;29;20683;-70
2024/01/01 06:28:06;;;;;;;11.20;3.30;;;;;;;;;;4929092;29;20054;-70
2024/01/01 06:30:34;;;;;;;14.65;3.90;;;;;;;;;;4915774;29;20043;-70
2024/01/01 06:33:01;;;;;;;10.77;4.20;;;;;;;;;;4915514;29;20051;-70
2024/01/01 06:35:30;;;;;;;10.10;3.53;;;;;;;;;;4893782;29;20752;-70
2024/01/01 06:37:56;;;;;;;10.65;3.63;;;;;;;;;;4907932;29;20131;-70
2024/01/01 06:40:22;;;;;;;11.23;4.15;;;;;;;;;;4909055;29;20045;-70
2024/01/01 06:42:48;;;;;;;15.85;4.22;;;;;;;;;;4908796;29;20118;-70
2024/01/01 06:45:15;;;;;;;16.25;3.70;;;;;;;;;;4908922;29;20047;-70
2024/01/01 06:47:41;;;;;;;12.95;3.55;;;;;;;;;;4893193;29;20099;-70
2024/01/01 06:50:07;;;;;;;13.85;4.70;;;;;;;;;;4899433;29;20047;-70
2024/01/01 06:52:33;;;;;;;11.75;3.03;;;;;;;;;;4911329;29;20046;-70
2024/01/01 06:54:59;;;;;;;15.88;3.42;;;;;;;;;;4896094;29;20239;-70
2024/01/01 06:57:25;;;;;;;10.38;3.47;;;;;;;;;;4928659;29;20044;-71
2024/01/01 06:59:51;;;;;;;12.05;3.22;;;;;;;;;;4899983;29;20102;-70
2024/01/01 07:02:18;;;;;;;10.57;3.20;;;;;;;;;;4899921;29;20055;-70
2024/01/01 07:04:44;;;;;;;11.10;3.53;;;;;;;;;;4907676;29;20051;-70
2024/01/01 07:07:11;;;;;;;8.00;3.45;;;;;;;;;;4906647;29;20273;-71
2024/01/01 07:09:37;;;;;;;15.57;4.30;;;;;;;;;;4929356;29;20187;-69
2024/01/01 07:12:19;;;;;;;14.45;3.90;;;;;;;;;;4927647;29;20050;-69
2024/01/01 07:14:45;;;;;;;14.60;3.92;;;;;;;;;;4906497;29;20090;-70
2024/01/01 07:17:11;;;;;;;10.93;3.78;;;;;;;;;;4890819;29;20043;-71
2024/01/01 07:19:37;;;;;;;11.82;3.65;;;;;;;;;;4924087;29;20044;-70
2024/01/01 07:22:04;;;;;;;14.02;5.35;;;;;;;;;;4909432;29;20127;-69
2024/01/01 07:24:30;;;;;;;15.32;4.53;;;;;;;;;;4903063;29;20815;-71
2024/01/01 07:26:57;;;;;;;11.23;3.42;;;;;;;;;;4906963;29;20047;-70
2024/01/01 07:29:23;;;;;;;10.02;3.60;;;;;;;;;;4928714;29;20055;-70
2024/01/01 07:31:49;;;;;;;11.00;3.13;;;;;;;;;;4929375;29;20151;-69
2024/01/01 07:34:19;;;;;;;12.82;3.33;;;;;;;;;;4928128;29;20503;-70
2024/01/01 07:36:48;;;;;;;7.97;2.92;;;;;;;;;;4927186;28;20075;-71
2024/01/01 07:39:23;;;;;;;11.32;3.58;;;;;;;;;;4933638;29;20048;-70
2024/01/01 07:41:49;;;;;;;9.85;3.65;;;;;;;;;;4927873;29;20058;-72
2024/01/01 07:44:15;;;;;;;12.32;4.15;;;;;;;;;;4946441;29;20058;-68
2024/01/01 07:46:46;;;;;;;14.70;4.13;;;;;;;;;;4926851;29;20043;-69
2024/01/01 07:49:13;;;;;;;15.80;4.22;;;;;;;;;;4943715;29;20134;-68
2024/01/01 07:51:38;;;;;;;18.48;5.00;;;;;;;;;;4912451;29;20075;-68
2024/01/01 07:54:05;;;;;;;15.68;3.75;;;;;;;;;;4926957;29;20146;-69
2024/01/01 07:56:31;;;;;;;12.50;3.33;;;;;;;;;;4945846;28;20047;-69
2024/01/01 07:58:57;;;;;;;7.57;2.53;;;;;;;;;;4926919;29;20047;-69
2024/01/01 08:01:24;;;;;;;5.35;2.28;;;;;;;;;;4945357;29;20042;-71
2024/01/01 08:03:50;;;;;;;8.00;2.50;;;;;;;;;;4927107;29;20042;-70
2024/01/01 08:06:17;;;;;;;4.90;2.58;;;;;;;;;;4923081;29;20851;-71
2024/01/01 08:08:43;;;;;;;7.55;2.10;;;;;;;;;;4927655;29;20066;-71
2024/01/01 08:11:09;;;;;;;4.15;1.65;;;;;;;;;;4925257;29;20802;-72
2024/01/01 08:13:36;;;;;;;5.95;1.98;;;;;;;;;;4945054;28;20107;-70
2024/01/01 08:16:02;;;;;;;4.90;1.40;;;;;;;;;;4927711;29;20778;-70
2024/01/01 08:18:28;;;;;;;7.63;2.00;;;;;;;;;;4945125;29;20065;-71
2024/01/01 08:20:55;;;;;;;6.10;1.80;;;;;;;;;;4926814;29;20070;-69
2024/01/01 08:23:21;;;;;;;3.00;1.70;;;;;;;;;;4923903;29;20135;-71
2024/01/01 08:25:47;;;;;;;10.52;3.05;;;;;;;;;;4926508;29;20071;-72
2024/01/01 08:28:13;;;;;;;9.40;3.55;;;;;;;;;;4911009;29;20047;-71
2024/01/01 08:30:39;;;;;;;20.48;3.72;;;;;;;;;;4911434;28;20085;-72
2024/01/01 08:33:06;;;;;;;16.15;3.78;;;;;;;;;;4909546;29;20056;-71
2024/01/01 08:35:32;;;;;;;13.35;3.92;;;;;;;;;;4906132;29;20141;-71
2024/01/01 08:37:58;;;;;;;16.80;4.32;;;;;;;;;;4906714;29;20130;-70
2024/01/01 08:40:24;;;;;;;12.85;3.58;;;;;;;;;;4897466;29;20055;-69
2024/01/01 08:42:51;;;;;;;16.80;5.70;;;;;;;;;;4923624;29;20091;-70
2024/01/01 08:45:19;;;;;;;18.58;5.38;;;;;;;;;;4907066;29;20039;-70
2024/01/01 08:47:45;;;;;;;14.13;3.17;;;;;;;;;;4907636;29;20055;-70
2024/01/01 08:50:12;;;;;;;18.67;3.63;;;;;;;;;;4923244;29;20039;-70
2024/01/01 08:52:38;;;;;;;14.77;3.55;;;;;;;;;;4901172;29;20320;-70
2024/01/01 08:55:04;;;;;;;14.88;4.80;;;;;;;;;;4899062;29;20080;-71
2024/01/01 08:57:30;;;;;;;17.40;3.50;;;;;;;;;;4909971;29;20047;-71
2024/01/01 08:59:56;;;;;;;23.42;4.00;;;;;;;;;;4907348;29;20679;-71
2024/01/01 09:02:22;;;;;;;24.52;3.97;;;;;;;;;;4903543;29;20522;-71
2024/01/01 09:04:48;;;;;;;12.45;3.03;;;;;;;;;;4925490;29;20048;-69
2024/01/01 09:07:14;;;;;;;10.23;3.15;;;;;;;;;;4924797;29;20054;-71
2024/01/01 09:09:40;;;;;;;12.35;3.10;;;;;;;;;;4910762;29;20055;-72
2024/01/01 09:12:07;;;;;;;15.30;3.70;;;;;;;;;;4913258;29;20047;-71
2024/01/01 09:14:34;;;;;;;12.02;2.88;;;;;;;;;;4912725;29;20753;-71
2024/01/01 09:17:00;;;;;;;8.15;3.70;;;;;;;;;;4909727;29;20520;-71
2024/01/01 09:19:26;;;;;;;11.88;2.97;;;;;;;;;;4910027;28;20831;-71
2024/01/01 09:21:52;;;;;;;10.32;2.88;;;;;;;;;;4909539;29;20523;-71
2024/01/01 09:24:18;;;;;;;12.45;2.83;;;;;;;;;;4892881;29;20051;-71
2024/01/01 09:26:44;;;;;;;15.63;3.13;;;;;;;;;;4923512;29;20075;-71
2024/01/01 09:29:10;;;;;;;14.43;3.25;;;;;;;;;;4906474;29;20645;-71
2024/01/01 09:31:37;;;;;;;11.27;3.63;;;;;;;;;;4907794;29;20150;-71
2024/01/01 09:34:06;;;;;;;11.35;3.22;;;;;;;;;;4906711;29;20140;-71
2024/01/01 09:36:32;;;;;;;13.02;3.08;;;;;;;;;;4902010;29;20108;-70
2024/01/01 09:38:58;;;;;;;12.77;3.08;;;;;;;;;;4904864;29;20099;-71
2024/01/01 09:41:25;;;;;;;6.68;2.78;;;;;;;;;;4892353;29;20165;-71
2024/01/01 09:43:52;;;;;;;10.52;2.63;;;;;;;;;;4894709;29;20050;-70
2024/01/01 09:46:18;;;;;;;12.10;3.55;;;;;;;;;;4905555;29;20048;-72
2024/01/01 09:48:45;;;;;;;11.75;3.30;;;;;;;;;;4903939;29;20610;-71
2024/01/01 09:51:11;;;;;;;14.35;4.32;;;;;;;;;;4918824;29;20047;-72
2024/01/01 09:53:40;;;;;;;12.15;3.25;;;;;;;;;;4920403;29;20035;-72
2024/01/01 09:56:07;;;;;;;14.40;3.38;;;;;;;;;;4906185;29;20057;-70
2024/01/01 09:58:41;;;;;;;21.70;3.45;;;;;;;;;;4891953;29;20044;-70
2024/01/01 10:01:11;;;;;;;13.38;2.90;;;;;;;;;;4906721;29;20056;-70
2024/01/01 10:03:37;;;;;;;11.13;3.08;;;;;;;;;;4920027;29;20103;-72
2024/01/01 10:06:08;;;;;;;9.07;2.83;;;;;;;;;;4889254;29;20873;-71
2024/01/01 10:08:34;;;;;;;13.02;2.67;;;;;;;;;;4904313;29;20150;-70
2024/01/01 10:11:29;;;;;;;10.02;2.33;;;;;;;;;;4922430;29;20052;-73
2024/01/01 10:14:02;;;;;;;12.25;3.38;;;;;;;;;;4901204;29;20063;-71
2024/01/01 10:16:28;;;;;;;13.05;2.47;;;;;;;;;;4903025;29;20083;-72
2024/01/01 10:18:58;;;;;;;12.02;3.05;;;;;;;;;;4919195;29;20044;-70
2024/01/01 10:21:28;;;;;;;15.63;2.83;;;;;;;;;;4899634;29;20047;-71
2024/01/01 10:23:54;;;;;;;12.63;2.33;;;;;;;;;;4885539;29;20040;-71
2024/01/01 10:26:20;;;;;;;21.25;3.03;;;;;;;;;;4902922;29;20048;-71
2024/01/01 10:28:46;;;;;;;11.90;2.47;;;;;;;;;;4917222;29;20472;-71
2024/01/01 10:31:13;;;;;;;9.07;2.47;;;;;;;;;;4914415;28;20503;-71
2024/01/01 10:33:41;;;;;;;10.55;2.20;;;;;;;;;;4932066;29;20139;-70
2024/01/01 10:36:07;;;;;;;12.73;2.88;;;;;;;;;;4924719;28;20203;-71
2024/01/01 10:38:35;;;;;;;11.77;2.65;;;;;;;;;;4929451;29;20054;-71
2024/01/01 10:41:02;;;;;;;13.35;2.92;;;;;;;;;;4920929;28;20137;-70
2024/01/01 10:43:28;;;;;;;10.23;2.55;;;;;;;;;;4938983;28;20051;-72
2024/01/01 10:45:57;;;;;;;12.43;2.58;;;;;;;;;;4922545;29;20047;-71
2024/01/01 10:48:23;;;;;;;16.02;2.85;;;;;;;;;;4922965;29;20051;-71
2024/01/01 10:51:00;;;;;;;9.43;2.30;;;;;;;;;;4942124;29;20048;-71
2024/01/01 10:53:37;;;;;;;7.78;2.25;;;;;;;;;;4919281;29;20106;-72
2024/01/01 10:56:09;;;;;;;12.30;2.70;;;;;;;;;;4906437;29;20055;-70
2024/01/01 10:58:58;;;;;;;13.88;3.08;;;;;;;;;;4917689;29;20043;-71
2024/01/01 11:01:24;;;;;;;17.42;3.50;;;;;;;;;;4908812;29;20499;-72
2024/01/01 11:03:51;;;;;;;14.43;2.72;;;;;;;;;;4917188;29;20047;-71
2024/01/01 11:06:29;;;;;;;13.50;2.17;;;;;;;;;;4902357;28;20047;-71
2024/01/01 11:08:55;;;;;;;13.10;3.55;;;;;;;;;;4922745;28;20055;-71
2024/01/01 11:11:22;;;;;;;12.55;2.53;;;;;;;;;;4921606;29;20047;-71
2024/01/01 11:13:51;;;;;;;10.10;2.55;;;;;;;;;;4938227;28;20078;-70
2024/01/01 11:16:17;;;;;;;17.08;2.80;;;;;;;;;;4923979;29;20526;-71
2024/01/01 11:18:44;;;;;;;14.00;3.10;;;;;;;;;;4917263;29;20047;-71
2024/01/01 11:21:10;;;;;;;19.85;4.10;;;;;;;;;;4925217;29;20154;-71
2024/01/01 11:23:43;;;;;;;12.43;2.72;;;;;;;;;;4922969;29;20059;-72
2024/01/01 11:26:24;;;;;;;11.63;2.45;;;;;;;;;;4941170;29;20047;-71
2024/01/01 11:28:51;;;;;;;9.77;2.72;;;;;;;;;;4924022;28;20084;-70
2024/01/01 11:31:17;;;;;;;19.42;3.40;;;;;;;;;;4939031;29;20066;-71
2024/01/01 11:33:44;;;;;;;16.40;3.00;;;;;;;;;;4889693;29;20372;-70
2024/01/01 11:36:10;;;;;;;11.68;3.22;;;;;;;;;;4902896;29;20498;-70
2024/01/01 11:38:36;;;;;;;8.52;2.35;;;;;;;;;;4919373;29;20427;-70
2024/01/01 11:41:03;;;;;;;17.15;3.25;;;;;;;;;;4910205;29;20058;-71
2024/01/01 11:43:29;;;;;;;10.02;2.42;;;;;;;;;;4920031;29;20040;-71
2024/01/01 11:45:56;;;;;;;10.20;2.28;;;;;;;;;;4915255;29;20043;-70
2024/01/01 11:48:24;;;;;;;12.40;2.63;;;;;;;;;;4904539;29;20087;-70
2024/01/01 11:50:53;;;;;;;7.85;1.70;;;;;;;;;;4893462;29;20036;-70
2024/01/01 11:53:19;;;;;;;7.95;2.97;;;;;;;;;;4928127;28;21017;-70
2024/01/01 11:55:45;;;;;;;8.50;1.80;;;;;;;;;;4892203;29;20062;-69
2024/01/01 11:58:12;;;;;;;10.32;2.00;;;;;;;;;;4906649;29;20154;-69
2024/01/01 12:00:39;;;;;;;8.85;1.95;;;;;;;;;;4908496;29;20751;-74
2024/01/01 12:03:06;;;;;;;7.60;2.45;;;;;;;;;;4919241;29;20043;-70
2024/01/01 12:05:33;;;;;;;10.70;2.47;;;;;;;;;;4929690;29;20043;-70
2024/01/01 12:08:00;;;;;;;7.97;2.40;;;;;;;;;;4908371;29;20150;-69
2024/01/01 12:10:28;;;;;;;11.10;2.38;;;;;;;;;;4908607;29;20397;-70
2024/01/01 12:13:02;;;;;;;8.05;2.00;;;;;;;;;;4931634;29;20056;-70
2024/01/01 12:15:31;;;;;;;10.65;1.98;;;;;;;;;;4903244;29;20062;-70
2024/01/01 12:17:57;;;;;;;10.77;2.20;;;;;;;;;;4921181;29;20048;-70
2024/01/01 12:20:24;;;;;;;8.73;1.80;;;;;;;;;;4904999;29;20044;-70
2024/01/01 12:22:52;;;;;;;6.50;2.03;;;;;;;;;;4929202;29;20039;-70
2024/01/01 12:25:19;;;;;;;11.48;2.45;;;;;;;;;;4905133;29;20587;-70
2024/01/01 12:27:59;;;;;;;12.23;2.13;;;;;;;;;;4910119;29;20058;-70
2024/01/01 12:30:27;;;;;;;10.27;2.92;;;;;;;;;;4907384;29;20048;-70
2024/01/01 12:32:53;;;;;;;9.15;2.85;;;;;;;;;;4911287;29;20686;-70
2024/01/01 12:35:19;;;;;;;10.57;2.20;;;;;;;;;;4912108;29;20135;-70
2024/01/01 12:37:47;;;;;;;12.13;2.20;;;;;;;;;;4902783;29;20058;-70
2024/01/01 12:40:13;;;;;;;6.53;1.88;;;;;;;;;;4914460;29;20059;-70
2024/01/01 12:42:39;;;;;;;8.38;1.90;;;;;;;;;;4905168;29;20043;-69
2024/01/01 12:45:06;;;;;;;13.25;2.63;;;;;;;;;;4908499;29;20055;-69
2024/01/01 12:47:32;;;;;;;12.60;2.72;;;;;;;;;;4891078;29;20236;-69
2024/01/01 12:49:58;;;;;;;11.60;2.28;;;;;;;;;;4906503;29;20074;-69
2024/01/01 12:52:24;;;;;;;9.95;1.88;;;;;;;;;;4908500;29;20126;-69
2024/01/01 12:54:50;;;;;;;6.25;1.70;;;;;;;;;;4905834;29;20482;-69
2024/01/01 12:57:17;;;;;;;10.13;2.55;;;;;;;;;;4907234;29;20051;-69
2024/01/01 12:59:43;;;;;;;9.13;1.83;;;;;;;;;;4922585;29;20138;-69
2024/01/01 13:02:10;;;;;;;13.75;2.08;;;;;;;;;;4923739;29;20050;-69
2024/01/01 13:04:36;;;;;;;9.82;2.28;;;;;;;;;;4906112;29;20046;-69
2024/01/01 13:07:03;;;;;;;7.32;2.47;;;;;;;;;;4901063;29;20080;-69
2024/01/01 13:09:29;;;;;;;10.55;3.05;;;;;;;;;;4924417;29;20768;-69
2024/01/01 13:11:55;;;;;;;12.20;1.85;;;;;;;;;;4906993;29;20792;-69
2024/01/01 13:14:21;;;;;;;8.75;2.08;;;;;;;;;;4911688;29;20054;-69
2024/01/01 13:16:48;;;;;;;8.23;2.15;;;;;;;;;;4911001;29;20649;-69
2024/01/01 13:19:14;;;;;;;16.05;2.35;;;;;;;;;;4905770;29;20086;-70
2024/01/01 13:21:41;;;;;;;13.35;2.25;;;;;;;;;;4895395;29;20376;-70
2024/01/01 13:24:07;;;;;;;6.32;2.83;;;;;;;;;;4905457;29;20058;-71
2024/01/01 13:26:34;;;;;;;14.88;3.20;;;;;;;;;;4922076;29;20152;-70
2024/01/01 13:29:00;;;;;;;13.70;1.98;;;;;;;;;;4924364;29;20122;-70
2024/01/01 13:31:26;;;;;;;8.45;2.15;;;;;;;;;;4929443;29;20771;-70
2024/01/01 13:33:53;;;;;;;5.47;2.10;;;;;;;;;;4924184;29;20273;-71
2024/01/01 13:36:20;;;;;;;5.40;1.90;;;;;;;;;;4908778;28;20043;-70
2024/01/01 13:38:47;;;;;;;8.57;2.70;;;;;;;;;;4901358;29;20086;-71
2024/01/01 13:41:13;;;;;;;13.77;2.80;;;;;;;;;;4906752;29;20043;-70
2024/01/01 13:43:39;;;;;;;6.32;1.63;;;;;;;;;;4921733;29;20054;-70
2024/01/01 13:46:09;;;;;;;5.82;2.05;;;;;;;;;;4925692;29;20049;-70
2024/01/01 13:48:35;;;;;;;9.75;2.17;;;;;;;;;;4926113;28;20053;-70
2024/01/01 13:51:02;;;;;;;13.25;2.75;;;;;;;;;;4922980;29;20101;-71
2024/01/01 13:53:29;;;;;;;12.32;2.63;;;;;;;;;;4919682;29;20047;-70
2024/01/01 13:55:55;;;;;;;7.65;1.98;;;;;;;;;;4908367;29;20043;-70
2024/01/01 13:58:22;;;;;;;15.02;2.83;;;;;;;;;;4906479;29;20223;-70
2024/01/01 14:00:49;;;;;;;11.85;2.28;;;;;;;;;;4902872;29;20054;-70
2024/01/01 14:03:18;;;;;;;9.50;2.10;;;;;;;;;;4911350;29;20051;-70
2024/01/01 14:05:44;;;;;;;6.75;2.20;;;;;;;;;;4909008;28;20851;-71
2024/01/01 14:08:14;;;;;;;8.52;2.45;;;;;;;;;;4905655;29;20047;-70
2024/01/01 14:10:43;;;;;;;10.35;1.98;;;;;;;;;;4911369;28;20116;-70
2024/01/01 14:13:09;;;;;;;9.30;2.63;;;;;;;;;;4905853;29;20099;-70
2024/01/01 14:15:38;;;;;;;13.95;2.50;;;;;;;;;;4927194;29;20051;-71
2024/01/01 14:18:04;;;;;;;9.93;1.90;;;;;;;;;;4911289;29;20043;-70
2024/01/01 14:20:31;;;;;;;10.93;2.53;;;;;;;;;;4907132;29;20162;-70
2024/01/01 14:22:58;;;;;;;8.05;2.42;;;;;;;;;;4920445;29;20115;-70
2024/01/01 14:25:24;;;;;;;7.55;2.75;;;;;;;;;;4942860;28;20051;-70
2024/01/01 14:27:50;;;;;;;10.95;2.00;;;;;;;;;;4912051;29;20150;-70